Espy, Pennsylvania
Current Conditions -  °F | °C
As of 6:15 AM on Friday 28 Nov 2014 (Local Time) from KHZL Reporting Station
Overcast Overcast  
Wind Chill: 17°   Ceiling: 1400
Heat Index: 27°   Visibility: 10mi
Dew Point: 23°   Wind: 9mph
Humidity: 86%   Direction: 300°WNW
Pressure: 30.12"   Gusts: NA
Location:  41.0301°N, 76.4558°W
Report Text: KHZL 281115Z AUTO 30008KT 10SM SCT009 BKN014 OVC060 M03/M05 A3012 RMK AO2
Loading
Personal Weather Stations






























Interactive Weather Map New forecast layout! Learn more

10-Day Weather Forecast

Advertisements
Track Severe Weather on mobile